createdAt,value
2023-01-29T00:02:24.870Z,5.70
2023-01-29T00:04:53.735Z,5.80
2023-01-29T00:07:24.970Z,6.30
2023-01-29T00:09:53.105Z,5.70
2023-01-29T00:12:21.176Z,5.40
2023-01-29T00:14:48.983Z,5.30
2023-01-29T00:17:16.794Z,5.90
2023-01-29T00:19:44.545Z,6.30
2023-01-29T00:22:12.304Z,6.20
2023-01-29T00:24:40.099Z,5.60
2023-01-29T00:27:08.103Z,6.40
2023-01-29T00:29:35.838Z,6.70
2023-01-29T00:32:03.929Z,6.60
2023-01-29T00:34:31.937Z,6.30
2023-01-29T00:37:04.894Z,6.00
2023-01-29T00:39:47.357Z,6.50
2023-01-29T00:42:34.315Z,6.90
2023-01-29T00:45:02.189Z,6.10
2023-01-29T00:47:36.099Z,5.50
2023-01-29T00:50:09.772Z,5.80
2023-01-29T00:52:38.642Z,6.70
2023-01-29T00:55:07.651Z,6.40
2023-01-29T00:57:35.995Z,7.20
2023-01-29T01:00:06.327Z,7.60
2023-01-29T01:02:53.100Z,6.30
2023-01-29T01:05:21.142Z,6.00
2023-01-29T01:07:51.377Z,6.40
2023-01-29T01:10:39.551Z,7.10
2023-01-29T01:13:08.074Z,6.50
2023-01-29T01:15:38.229Z,7.80
2023-01-29T01:18:06.564Z,7.20
2023-01-29T01:20:36.421Z,9.20
2023-01-29T01:23:04.385Z,8.20
2023-01-29T01:25:32.284Z,7.70
2023-01-29T01:28:03.218Z,7.60
2023-01-29T01:30:31.113Z,7.30
2023-01-29T01:32:59.012Z,6.60
2023-01-29T01:35:26.911Z,6.40
2023-01-29T01:37:54.742Z,6.80
2023-01-29T01:40:24.819Z,5.90
2023-01-29T01:42:55.953Z,6.10
2023-01-29T01:45:31.286Z,5.80
2023-01-29T01:48:08.151Z,6.60
2023-01-29T01:50:47.663Z,5.50
2023-01-29T01:53:21.231Z,5.50
2023-01-29T01:55:52.384Z,5.70
2023-01-29T01:58:24.973Z,5.60
2023-01-29T02:00:52.786Z,6.20
2023-01-29T02:03:40.349Z,5.30
2023-01-29T02:06:27.517Z,4.80
2023-01-29T02:09:25.864Z,5.70
2023-01-29T02:11:53.874Z,6.90
2023-01-29T02:14:22.198Z,5.80
2023-01-29T02:16:50.013Z,5.80
2023-01-29T02:19:31.841Z,6.10
2023-01-29T02:22:05.734Z,5.00
2023-01-29T02:24:59.092Z,5.60
2023-01-29T02:27:49.368Z,6.10
2023-01-29T02:30:32.253Z,6.10
2023-01-29T02:33:09.761Z,6.30
2023-01-29T02:36:04.732Z,6.10
2023-01-29T02:39:14.692Z,5.70
2023-01-29T02:41:53.676Z,6.30
2023-01-29T02:44:34.651Z,5.10
2023-01-29T02:47:23.207Z,6.10
2023-01-29T02:50:00.223Z,6.60
2023-01-29T02:52:38.580Z,6.80
2023-01-29T02:55:18.530Z,6.70
2023-01-29T02:57:49.149Z,6.90
2023-01-29T03:00:26.883Z,6.50
2023-01-29T03:02:59.111Z,6.10
2023-01-29T03:05:43.641Z,7.00
2023-01-29T03:08:15.897Z,7.90
2023-01-29T03:11:03.328Z,7.10
2023-01-29T03:13:41.572Z,6.10
2023-01-29T03:16:19.244Z,5.90
2023-01-29T03:18:53.158Z,6.20
2023-01-29T03:21:48.639Z,6.60
2023-01-29T03:24:41.371Z,6.50
2023-01-29T03:27:29.383Z,5.80
2023-01-29T03:30:17.185Z,5.50
2023-01-29T03:32:46.889Z,5.70
2023-01-29T03:35:21.875Z,5.70
2023-01-29T03:37:49.667Z,6.20
2023-01-29T03:40:18.268Z,5.30
2023-01-29T03:43:12.265Z,4.90
2023-01-29T03:45:51.015Z,5.50
2023-01-29T03:48:58.510Z,5.00
2023-01-29T03:51:39.464Z,5.30
2023-01-29T03:54:13.266Z,4.60
2023-01-29T03:57:00.965Z,5.40
2023-01-29T03:59:39.136Z,5.20
2023-01-29T04:02:22.056Z,4.40
2023-01-29T04:04:52.489Z,4.40
2023-01-29T04:07:29.610Z,5.80
2023-01-29T04:10:05.899Z,4.90
2023-01-29T04:12:58.051Z,5.30
2023-01-29T04:15:29.082Z,6.40
2023-01-29T04:17:57.394Z,6.00
2023-01-29T04:20:25.211Z,4.80
2023-01-29T04:22:53.306Z,4.60
2023-01-29T04:25:26.683Z,4.90
2023-01-29T04:28:07.963Z,5.30
2023-01-29T04:31:00.321Z,5.40
2023-01-29T04:33:40.495Z,5.40
2023-01-29T04:36:08.389Z,4.90
2023-01-29T04:38:42.512Z,5.70
2023-01-29T04:42:04.458Z,5.20
2023-01-29T04:44:55.123Z,5.30
2023-01-29T04:47:45.227Z,5.50
2023-01-29T04:50:19.675Z,4.90
2023-01-29T04:52:53.403Z,5.40
2023-01-29T04:55:40.329Z,5.70
2023-01-29T04:58:14.559Z,5.00
2023-01-29T05:00:45.049Z,5.90
2023-01-29T05:03:15.257Z,5.50
2023-01-29T05:05:46.714Z,5.60
2023-01-29T05:08:17.237Z,5.70
2023-01-29T05:10:46.951Z,5.60
2023-01-29T05:13:15.314Z,5.30
2023-01-29T05:15:52.985Z,6.40
2023-01-29T05:18:20.888Z,6.60
2023-01-29T05:20:49.350Z,6.60
2023-01-29T05:23:18.788Z,5.60
2023-01-29T05:25:48.009Z,6.10
2023-01-29T05:28:18.953Z,6.80
2023-01-29T05:30:57.264Z,5.50
2023-01-29T05:33:31.702Z,5.90
2023-01-29T05:36:00.237Z,6.90
2023-01-29T05:38:28.026Z,6.10
2023-01-29T05:40:58.855Z,6.70
2023-01-29T05:43:27.178Z,6.40
2023-01-29T05:45:58.907Z,6.40
2023-01-29T05:48:29.115Z,6.10
2023-01-29T05:51:03.317Z,6.50
2023-01-29T05:53:31.683Z,6.10
2023-01-29T05:56:03.959Z,6.30
2023-01-29T05:58:32.677Z,7.10
2023-01-29T06:01:15.116Z,6.80
2023-01-29T06:03:43.341Z,6.20
2023-01-29T06:06:11.400Z,6.30
2023-01-29T06:08:39.235Z,6.40
2023-01-29T06:11:11.934Z,6.70
2023-01-29T06:13:40.600Z,6.10
2023-01-29T06:16:09.390Z,6.30
2023-01-29T06:18:37.599Z,5.70
2023-01-29T06:21:09.768Z,6.70
2023-01-29T06:23:37.942Z,6.90
2023-01-29T06:26:08.929Z,7.00
2023-01-29T06:28:36.988Z,6.80
2023-01-29T06:33:54.134Z,7.60
2023-01-29T06:36:21.866Z,6.30
2023-01-29T06:38:49.856Z,6.40
2023-01-29T06:41:19.475Z,6.70
2023-01-29T06:43:48.170Z,6.50
2023-01-29T06:46:15.934Z,6.60
2023-01-29T06:48:43.722Z,6.80
2023-01-29T06:51:11.927Z,6.40
2023-01-29T06:53:40.898Z,6.30
2023-01-29T06:56:09.063Z,7.10
2023-01-29T06:58:38.259Z,5.70
2023-01-29T07:01:11.701Z,6.10
2023-01-29T07:03:43.731Z,5.90
2023-01-29T07:06:11.799Z,6.50
2023-01-29T07:08:40.199Z,6.40
2023-01-29T07:11:08.372Z,6.30
2023-01-29T07:13:36.291Z,5.60
2023-01-29T07:16:05.846Z,5.90
2023-01-29T07:18:33.651Z,5.80
2023-01-29T07:21:07.639Z,6.10
2023-01-29T07:23:35.508Z,6.40
2023-01-29T07:26:05.338Z,7.90
2023-01-29T07:28:40.177Z,6.70
2023-01-29T07:31:08.919Z,6.20
2023-01-29T07:33:36.671Z,6.70
2023-01-29T07:36:08.633Z,6.50
2023-01-29T07:38:36.364Z,6.20
2023-01-29T07:41:04.430Z,6.80
2023-01-29T07:43:32.362Z,6.20
2023-01-29T07:46:04.531Z,5.50
2023-01-29T07:48:32.630Z,5.90
2023-01-29T07:51:00.476Z,6.20
2023-01-29T07:53:28.832Z,6.60
2023-01-29T07:55:56.933Z,7.40
2023-01-29T07:58:24.685Z,5.70
2023-01-29T08:00:52.440Z,6.10
2023-01-29T08:03:20.814Z,5.70
2023-01-29T08:05:48.692Z,5.70
2023-01-29T08:08:16.549Z,5.60
2023-01-29T08:10:44.399Z,5.80
2023-01-29T08:13:12.270Z,6.00
2023-01-29T08:15:45.860Z,6.50
2023-01-29T08:18:14.729Z,6.60
2023-01-29T08:20:42.700Z,6.70
2023-01-29T08:23:14.178Z,5.60
2023-01-29T08:25:42.320Z,8.10
2023-01-29T08:28:11.882Z,7.30
2023-01-29T08:30:39.983Z,8.10
2023-01-29T08:33:07.788Z,8.20
2023-01-29T08:35:36.345Z,6.70
2023-01-29T08:38:05.284Z,7.20
2023-01-29T08:40:34.558Z,7.20
2023-01-29T08:43:08.673Z,7.30
2023-01-29T08:45:39.212Z,7.40
2023-01-29T08:48:07.277Z,6.50
2023-01-29T08:50:36.162Z,7.80
2023-01-29T08:53:07.819Z,7.40
2023-01-29T08:55:40.465Z,7.30
2023-01-29T08:58:11.008Z,7.60
2023-01-29T09:00:39.013Z,6.90
2023-01-29T09:03:08.032Z,7.30
2023-01-29T09:05:37.495Z,7.50
2023-01-29T09:08:05.924Z,7.90
2023-01-29T09:10:34.018Z,8.40
2023-01-29T09:13:01.840Z,6.90
2023-01-29T09:15:29.975Z,6.80
2023-01-29T09:17:57.731Z,7.30
2023-01-29T09:20:25.592Z,7.30
2023-01-29T09:22:56.040Z,7.40
2023-01-29T09:25:23.845Z,8.10
2023-01-29T09:27:51.573Z,8.40
2023-01-29T09:30:19.594Z,8.00
2023-01-29T09:32:53.556Z,7.80
2023-01-29T09:35:23.462Z,8.10
2023-01-29T09:37:51.959Z,8.70
2023-01-29T09:40:38.451Z,6.90
2023-01-29T09:43:21.923Z,7.00
2023-01-29T09:46:04.469Z,7.10
2023-01-29T09:48:34.068Z,7.40
2023-01-29T09:51:06.791Z,7.30
2023-01-29T09:53:41.339Z,6.60
2023-01-29T09:56:15.020Z,7.20
2023-01-29T09:58:43.933Z,7.10
2023-01-29T10:01:28.337Z,8.30
2023-01-29T10:04:21.240Z,7.20
2023-01-29T10:07:13.530Z,7.20
2023-01-29T10:09:47.761Z,6.90
2023-01-29T10:12:52.965Z,7.40
2023-01-29T10:15:32.042Z,8.50
2023-01-29T10:18:24.507Z,6.30
2023-01-29T10:21:30.049Z,7.10
2023-01-29T10:24:24.481Z,8.70
2023-01-29T10:26:52.987Z,8.50
2023-01-29T10:29:22.202Z,7.70
2023-01-29T10:31:54.235Z,8.00
2023-01-29T10:34:33.648Z,8.20
2023-01-29T10:37:02.108Z,7.40
2023-01-29T10:39:30.807Z,8.40
2023-01-29T10:42:30.097Z,8.30
2023-01-29T10:45:15.674Z,8.30
2023-01-29T10:47:46.866Z,9.00
2023-01-29T10:50:37.941Z,6.80
2023-01-29T10:53:17.755Z,6.90
2023-01-29T10:56:20.930Z,7.10
2023-01-29T10:58:53.645Z,6.60
2023-01-29T11:01:21.824Z,7.10
2023-01-29T11:04:01.792Z,8.50
2023-01-29T11:06:32.380Z,7.10
2023-01-29T11:09:21.495Z,6.90
2023-01-29T11:12:05.990Z,7.30
2023-01-29T11:14:43.004Z,6.90
2023-01-29T11:17:18.300Z,7.40
2023-01-29T11:19:48.230Z,7.20
2023-01-29T11:22:21.222Z,7.70
2023-01-29T11:25:19.230Z,6.60
2023-01-29T11:27:53.390Z,7.10
2023-01-29T11:30:26.330Z,7.30
2023-01-29T11:33:20.189Z,7.00
2023-01-29T11:35:48.093Z,5.60
2023-01-29T11:38:16.001Z,6.10
2023-01-29T11:40:44.910Z,6.60
2023-01-29T11:43:27.771Z,6.90
2023-01-29T11:45:58.868Z,6.00
2023-01-29T11:48:59.034Z,6.10
2023-01-29T11:51:30.272Z,5.90
2023-01-29T11:54:01.902Z,6.40
2023-01-29T11:56:34.329Z,6.10
2023-01-29T11:59:04.765Z,6.10
2023-01-29T12:01:37.193Z,6.70
2023-01-29T12:04:18.424Z,5.80
2023-01-29T12:06:50.496Z,7.30
2023-01-29T12:09:29.417Z,6.30
2023-01-29T12:14:33.399Z,5.50
2023-01-29T12:17:14.056Z,5.10
2023-01-29T12:19:49.888Z,5.90
2023-01-29T12:22:22.657Z,5.70
2023-01-29T12:25:09.814Z,5.60
2023-01-29T12:27:49.737Z,5.70
2023-01-29T12:30:22.780Z,5.40
2023-01-29T12:32:59.787Z,5.80
2023-01-29T12:35:38.743Z,5.10
2023-01-29T12:38:19.414Z,4.20
2023-01-29T12:40:47.714Z,6.10
2023-01-29T12:43:22.795Z,5.50
2023-01-29T12:45:53.108Z,5.40
2023-01-29T12:48:33.358Z,5.10
2023-01-29T12:51:08.024Z,4.60
2023-01-29T12:53:40.588Z,4.90
2023-01-29T12:56:16.897Z,4.90
2023-01-29T12:58:48.061Z,4.70
2023-01-29T13:01:41.751Z,4.70
2023-01-29T13:04:26.309Z,4.30
2023-01-29T13:06:59.394Z,4.60
2023-01-29T13:09:29.080Z,4.50
2023-01-29T13:12:01.262Z,4.80
2023-01-29T13:14:40.058Z,5.00
2023-01-29T13:17:13.201Z,5.20
2023-01-29T13:22:18.670Z,5.80
2023-01-29T13:24:58.778Z,5.30
2023-01-29T13:27:33.902Z,6.10
2023-01-29T13:30:02.048Z,6.20
2023-01-29T13:32:32.038Z,5.70
2023-01-29T13:35:05.329Z,6.60
2023-01-29T13:37:50.511Z,6.30
2023-01-29T13:40:27.598Z,5.50
2023-01-29T13:42:57.867Z,6.60
2023-01-29T13:45:43.371Z,6.50
2023-01-29T13:48:23.257Z,6.90
2023-01-29T13:50:51.691Z,6.50
2023-01-29T13:53:29.608Z,6.60
2023-01-29T13:56:32.679Z,6.70
2023-01-29T13:59:02.487Z,6.20
2023-01-29T14:01:48.822Z,7.60
2023-01-29T14:04:21.704Z,6.50
2023-01-29T14:06:54.755Z,8.60
2023-01-29T14:09:32.608Z,8.10
2023-01-29T14:12:00.610Z,7.80
2023-01-29T14:14:51.989Z,7.90
2023-01-29T14:17:20.531Z,6.90
2023-01-29T14:20:01.936Z,7.20
2023-01-29T14:22:31.674Z,6.70
2023-01-29T14:25:04.040Z,7.10
2023-01-29T14:27:32.355Z,7.00
2023-01-29T14:30:10.000Z,7.10
2023-01-29T14:32:39.661Z,7.10
2023-01-29T14:35:20.233Z,7.40
2023-01-29T14:37:51.239Z,7.30
2023-01-29T14:40:18.985Z,7.90
2023-01-29T14:43:21.764Z,7.10
2023-01-29T14:45:50.474Z,7.50
2023-01-29T14:48:39.414Z,8.80
2023-01-29T14:51:10.896Z,8.00
2023-01-29T14:54:06.194Z,7.90
2023-01-29T14:56:37.159Z,9.00
2023-01-29T14:59:12.835Z,8.10
2023-01-29T15:01:47.507Z,8.40
2023-01-29T15:04:19.290Z,8.90
2023-01-29T15:06:50.817Z,9.20
2023-01-29T15:10:22.290Z,8.50
2023-01-29T15:13:14.488Z,10.20
2023-01-29T15:16:06.773Z,9.70
2023-01-29T15:18:42.305Z,8.80
2023-01-29T15:21:15.448Z,10.50
2023-01-29T15:23:44.780Z,9.80
2023-01-29T15:26:18.832Z,9.00
2023-01-29T15:29:02.160Z,9.30
2023-01-29T15:31:32.421Z,10.60
2023-01-29T15:34:06.643Z,10.00
2023-01-29T15:36:36.846Z,8.90
2023-01-29T15:39:19.877Z,9.40
2023-01-29T15:41:47.922Z,9.50
2023-01-29T15:44:18.896Z,10.00
2023-01-29T15:46:55.973Z,11.10
2023-01-29T15:49:32.204Z,9.80
2023-01-29T15:52:04.726Z,8.30
2023-01-29T15:54:34.866Z,8.90
2023-01-29T15:57:03.710Z,9.60
2023-01-29T15:59:35.009Z,7.80
2023-01-29T16:02:26.598Z,8.10
2023-01-29T16:04:55.307Z,8.40
2023-01-29T16:07:23.424Z,8.40
2023-01-29T16:09:51.961Z,8.10
2023-01-29T16:12:20.216Z,7.60
2023-01-29T16:14:49.946Z,8.90
2023-01-29T16:17:40.868Z,8.60
2023-01-29T16:20:49.697Z,7.80
2023-01-29T16:23:21.860Z,8.00
2023-01-29T16:25:50.111Z,7.10
2023-01-29T16:28:18.257Z,8.20
2023-01-29T16:30:49.709Z,8.70
2023-01-29T16:33:17.718Z,8.60
2023-01-29T16:35:51.364Z,7.70
2023-01-29T16:38:37.611Z,7.90
2023-01-29T16:41:38.752Z,8.30
2023-01-29T16:44:15.931Z,9.90
2023-01-29T16:46:48.458Z,10.80
2023-01-29T16:49:28.611Z,8.20
2023-01-29T16:51:57.081Z,8.90
2023-01-29T16:54:26.043Z,9.70
2023-01-29T16:56:56.409Z,9.00
2023-01-29T16:59:32.833Z,8.10
2023-01-29T17:02:01.037Z,7.40
2023-01-29T17:04:28.899Z,10.20
2023-01-29T17:06:59.631Z,9.80
2023-01-29T17:09:30.456Z,9.00
2023-01-29T17:12:04.935Z,9.60
2023-01-29T17:14:33.984Z,10.10
2023-01-29T17:17:05.261Z,9.60
2023-01-29T17:19:33.539Z,9.40
2023-01-29T17:22:04.775Z,9.10
2023-01-29T17:24:35.315Z,9.00
2023-01-29T17:27:03.230Z,10.00
2023-01-29T17:29:31.694Z,8.90
2023-01-29T17:32:02.095Z,8.40
2023-01-29T17:34:29.943Z,8.30
2023-01-29T17:36:57.686Z,9.40
2023-01-29T17:39:25.854Z,8.40
2023-01-29T17:41:55.766Z,8.20
2023-01-29T17:44:26.311Z,7.20
2023-01-29T17:46:54.452Z,8.60
2023-01-29T17:49:27.664Z,9.20
2023-01-29T17:51:57.010Z,8.60
2023-01-29T17:54:25.961Z,7.80
2023-01-29T17:56:53.984Z,8.50
2023-01-29T17:59:24.264Z,8.40
2023-01-29T18:01:52.287Z,8.90
2023-01-29T18:04:20.392Z,8.80
2023-01-29T18:06:50.049Z,8.70
2023-01-29T18:09:20.723Z,8.40
2023-01-29T18:11:49.431Z,7.90
2023-01-29T18:14:17.691Z,8.70
2023-01-29T18:16:46.190Z,8.50
2023-01-29T18:19:23.136Z,8.70
2023-01-29T18:21:51.116Z,9.60
2023-01-29T18:24:20.740Z,8.40
2023-01-29T18:26:49.799Z,7.70
2023-01-29T18:29:18.320Z,8.00
2023-01-29T18:31:49.449Z,8.00
2023-01-29T18:34:17.584Z,8.90
2023-01-29T18:36:47.977Z,9.70
2023-01-29T18:39:16.434Z,9.50
2023-01-29T18:41:44.539Z,11.10
2023-01-29T18:44:12.794Z,10.00
2023-01-29T18:46:40.663Z,11.20
2023-01-29T18:49:08.914Z,12.00
2023-01-29T18:51:37.001Z,11.60
2023-01-29T18:54:06.083Z,10.50
2023-01-29T18:56:34.101Z,11.30
2023-01-29T18:59:03.423Z,9.40
2023-01-29T19:01:33.382Z,8.70
2023-01-29T19:04:01.950Z,10.40
2023-01-29T19:06:30.319Z,12.50
2023-01-29T19:08:58.203Z,13.10
2023-01-29T19:11:26.149Z,13.10
2023-01-29T19:13:55.083Z,12.70
2023-01-29T19:16:22.933Z,12.70
2023-01-29T19:18:53.248Z,13.60
2023-01-29T19:21:22.408Z,13.80
2023-01-29T19:23:52.890Z,14.00
2023-01-29T19:26:20.813Z,12.40
2023-01-29T19:28:48.863Z,12.10
2023-01-29T19:31:16.625Z,14.50
2023-01-29T19:33:44.721Z,15.40
2023-01-29T19:36:13.640Z,13.90
2023-01-29T19:38:41.637Z,14.80
2023-01-29T19:41:09.752Z,13.20
2023-01-29T19:43:40.771Z,13.80
2023-01-29T19:46:10.450Z,14.20
2023-01-29T19:48:38.536Z,14.60
2023-01-29T19:51:09.188Z,14.30
2023-01-29T19:53:38.133Z,14.00
2023-01-29T19:56:08.652Z,12.90
2023-01-29T19:58:37.040Z,11.90
2023-01-29T20:01:29.491Z,12.80
2023-01-29T20:03:57.735Z,13.30
2023-01-29T20:06:28.079Z,13.40
2023-01-29T20:08:56.105Z,12.90
2023-01-29T20:11:25.123Z,12.40
2023-01-29T20:13:53.898Z,12.30
2023-01-29T20:16:22.164Z,13.90
2023-01-29T20:18:50.218Z,11.10
2023-01-29T20:21:20.829Z,12.30
2023-01-29T20:23:50.280Z,14.20
2023-01-29T20:26:19.539Z,13.90
2023-01-29T20:28:48.065Z,14.00
2023-01-29T20:31:16.585Z,15.10
2023-01-29T20:33:45.062Z,16.20
2023-01-29T20:36:14.854Z,16.10
2023-01-29T20:38:42.949Z,17.80
2023-01-29T20:41:19.475Z,15.80
2023-01-29T20:43:50.205Z,14.90
2023-01-29T20:46:18.615Z,14.80
2023-01-29T20:48:47.333Z,14.10
2023-01-29T20:51:17.913Z,16.70
2023-01-29T20:53:46.878Z,15.90
2023-01-29T20:56:16.648Z,15.70
2023-01-29T20:58:45.179Z,13.80
2023-01-29T21:01:17.282Z,13.60
2023-01-29T21:03:46.566Z,14.40
2023-01-29T21:06:15.109Z,13.60
2023-01-29T21:08:43.171Z,15.20
2023-01-29T21:11:11.254Z,14.60
2023-01-29T21:13:39.300Z,14.70
2023-01-29T21:16:07.361Z,14.40
2023-01-29T21:18:35.295Z,15.60
2023-01-29T21:21:06.162Z,14.40
2023-01-29T21:23:34.202Z,14.70
2023-01-29T21:26:04.340Z,14.00
2023-01-29T21:28:32.691Z,14.00
2023-01-29T21:31:08.439Z,13.90
2023-01-29T21:33:37.048Z,13.20
2023-01-29T21:36:05.663Z,15.60
2023-01-29T21:38:35.170Z,14.80
2023-01-29T21:41:04.859Z,12.80
2023-01-29T21:43:32.807Z,12.60
2023-01-29T21:46:05.093Z,14.40
2023-01-29T21:48:33.059Z,13.30
2023-01-29T21:51:01.091Z,12.40
2023-01-29T21:53:28.975Z,12.30
2023-01-29T21:56:01.550Z,12.80
2023-01-29T21:58:30.029Z,11.40
2023-01-29T22:01:36.976Z,12.70
2023-01-29T22:03:47.360Z,12.90
2023-01-29T22:06:15.673Z,12.00
2023-01-29T22:08:44.184Z,12.70
2023-01-29T22:11:12.326Z,11.40
2023-01-29T22:13:40.536Z,11.70
2023-01-29T22:16:08.478Z,10.80
2023-01-29T22:18:36.251Z,10.40
2023-01-29T22:21:04.160Z,10.80
2023-01-29T22:23:32.383Z,13.00
2023-01-29T22:26:04.492Z,13.30
2023-01-29T22:28:32.793Z,11.00
2023-01-29T22:31:04.733Z,10.90
2023-01-29T22:33:33.573Z,12.00
2023-01-29T22:36:01.491Z,9.30
2023-01-29T22:38:29.573Z,10.60
2023-01-29T22:40:59.659Z,10.40
2023-01-29T22:43:27.534Z,11.00
2023-01-29T22:45:56.660Z,10.30
2023-01-29T22:48:24.714Z,11.50
2023-01-29T22:51:09.517Z,10.80
2023-01-29T22:53:41.499Z,9.90
2023-01-29T22:56:10.607Z,10.00
2023-01-29T22:58:38.417Z,9.90
2023-01-29T23:01:06.234Z,10.60
2023-01-29T23:03:34.543Z,9.80
2023-01-29T23:06:03.837Z,9.90
2023-01-29T23:08:33.487Z,9.80
2023-01-29T23:11:14.073Z,10.30
2023-01-29T23:16:11.628Z,11.10
2023-01-29T23:18:39.527Z,10.90
2023-01-29T23:21:07.676Z,10.50
2023-01-29T23:23:36.507Z,11.20
2023-01-29T23:26:24.929Z,10.30
2023-01-29T23:28:52.807Z,9.40
2023-01-29T23:31:20.735Z,10.40
2023-01-29T23:33:49.422Z,9.40
2023-01-29T23:36:17.348Z,10.50
2023-01-29T23:38:45.122Z,10.50
2023-01-29T23:41:13.032Z,10.40
2023-01-29T23:43:40.934Z,9.70
2023-01-29T23:46:08.758Z,11.40
2023-01-29T23:48:36.640Z,12.80
2023-01-29T23:51:04.487Z,12.70
2023-01-29T23:53:34.759Z,12.30
2023-01-29T23:56:04.251Z,12.40
2023-01-29T23:58:32.585Z,12.10
